Time;durP1;ratioP1;P1;durP2;ratioP2;P2;SDS_P1;SDS_P2;PMS_P1;PMS_P2;Temp;Humidity;BMP_temperature;BMP_pressure;BME280_temperature;BME280_humidity;BME280_pressure;Samples;Min_cycle;Max_cycle;Signal;HPM_P1;HPM_P2
2021/09/30 00:00:06;;;;;;;0.70;0.70;;;;;;;;;;5121269;28;24421;-58
2021/09/30 00:02:31;;;;;;;0.70;0.70;;;;;;;;;;5116285;28;24512;-58
2021/09/30 00:04:56;;;;;;;1.20;0.80;;;;;;;;;;5126673;28;24644;-58
2021/09/30 00:07:21;;;;;;;1.00;0.90;;;;;;;;;;5122193;28;24414;-58
2021/09/30 00:09:47;;;;;;;0.70;0.70;;;;;;;;;;5127005;28;24998;-58
2021/09/30 00:12:16;;;;;;;0.77;0.70;;;;;;;;;;5126880;28;24486;-58
2021/09/30 00:14:58;;;;;;;0.90;0.70;;;;;;;;;;5123623;28;24437;-58
2021/09/30 00:39:36;;;;;;;1.60;0.82;;;;;;;;;;5122443;27;24413;-59
2021/09/30 00:52:36;;;;;;;1.27;1.10;;;;;;;;;;5045575;28;24477;-59
2021/09/30 01:21:44;;;;;;;0.98;0.88;;;;;;;;;;5126969;27;24967;-59
2021/09/30 01:24:27;;;;;;;1.30;0.90;;;;;;;;;;5123057;27;24436;-58
2021/09/30 01:27:56;;;;;;;1.55;0.82;;;;;;;;;;5117972;27;24782;-59
2021/09/30 01:32:50;;;;;;;1.80;1.00;;;;;;;;;;5121737;27;24958;-60
2021/09/30 01:46:12;;;;;;;1.80;1.10;;;;;;;;;;5128026;27;25261;-59
2021/09/30 02:27:02;;;;;;;1.60;1.35;;;;;;;;;;5122481;27;24815;-59
2021/09/30 02:58:49;;;;;;;1.83;1.50;;;;;;;;;;5126658;27;24757;-58
2021/09/30 03:01:19;;;;;;;1.80;1.70;;;;;;;;;;5127444;27;24421;-59
2021/09/30 03:03:45;;;;;;;1.50;1.40;;;;;;;;;;5127286;27;24417;-59
2021/09/30 03:06:10;;;;;;;1.50;1.40;;;;;;;;;;5121863;27;24420;-58
2021/09/30 03:08:44;;;;;;;2.03;1.60;;;;;;;;;;5127116;27;24440;-58
2021/09/30 03:11:09;;;;;;;1.35;1.25;;;;;;;;;;5126688;27;24505;-58
2021/09/30 03:13:35;;;;;;;1.70;1.40;;;;;;;;;;5127363;27;26381;-59
2021/09/30 03:16:08;;;;;;;1.30;1.20;;;;;;;;;;5126976;28;24407;-59
2021/09/30 03:18:50;;;;;;;1.50;1.10;;;;;;;;;;5126918;28;24401;-59
2021/09/30 03:24:00;;;;;;;1.48;1.30;;;;;;;;;;5120828;28;24408;-59
2021/09/30 03:26:26;;;;;;;1.40;1.30;;;;;;;;;;5126519;27;24421;-58
2021/09/30 03:28:51;;;;;;;1.67;1.40;;;;;;;;;;5125267;28;24823;-58
2021/09/30 03:31:16;;;;;;;1.37;1.27;;;;;;;;;;5126801;28;24409;-58
2021/09/30 03:33:42;;;;;;;1.50;1.30;;;;;;;;;;5126122;28;24464;-58
2021/09/30 03:36:07;;;;;;;1.50;1.40;;;;;;;;;;5123730;28;24504;-58
2021/09/30 03:38:34;;;;;;;1.80;1.30;;;;;;;;;;5126138;28;24433;-58
2021/09/30 03:40:59;;;;;;;2.20;1.50;;;;;;;;;;5127470;28;24504;-58
2021/09/30 03:43:24;;;;;;;1.40;1.30;;;;;;;;;;5125942;28;25089;-59
2021/09/30 03:45:49;;;;;;;1.40;1.23;;;;;;;;;;5126770;28;24420;-59
2021/09/30 03:48:15;;;;;;;1.50;1.30;;;;;;;;;;5126676;27;24420;-59
2021/09/30 03:56:07;;;;;;;1.60;1.50;;;;;;;;;;5126535;28;24573;-58
2021/09/30 04:01:17;;;;;;;1.30;1.20;;;;;;;;;;5130962;27;24428;-58
2021/09/30 04:03:42;;;;;;;1.50;1.40;;;;;;;;;;5130118;27;25117;-58
2021/09/30 04:06:08;;;;;;;1.47;1.30;;;;;;;;;;5130197;27;24409;-59
2021/09/30 04:08:34;;;;;;;1.63;1.40;;;;;;;;;;5130746;27;24427;-58
2021/09/30 04:10:59;;;;;;;1.50;1.40;;;;;;;;;;5128460;27;24975;-59
2021/09/30 04:13:24;;;;;;;2.27;1.60;;;;;;;;;;5131242;27;24393;-58
2021/09/30 04:15:50;;;;;;;1.70;1.60;;;;;;;;;;5130118;27;24401;-58
2021/09/30 04:18:16;;;;;;;1.92;1.60;;;;;;;;;;5131035;27;24428;-58
2021/09/30 04:20:41;;;;;;;1.50;1.30;;;;;;;;;;5129726;27;25032;-58
2021/09/30 04:23:07;;;;;;;2.20;1.60;;;;;;;;;;5126871;27;24444;-58
2021/09/30 04:25:32;;;;;;;1.60;1.40;;;;;;;;;;5128393;27;24967;-58
2021/09/30 04:27:57;;;;;;;1.87;1.30;;;;;;;;;;5127305;27;25216;-57
2021/09/30 04:30:22;;;;;;;1.30;1.20;;;;;;;;;;5129216;27;24420;-58
2021/09/30 04:32:47;;;;;;;2.80;1.40;;;;;;;;;;5130520;27;25174;-59
2021/09/30 04:35:13;;;;;;;1.77;1.40;;;;;;;;;;5126169;27;24874;-60
2021/09/30 04:37:38;;;;;;;1.37;1.20;;;;;;;;;;5122734;27;24422;-58
2021/09/30 04:40:03;;;;;;;2.77;1.63;;;;;;;;;;5106556;28;24394;-61
2021/09/30 04:42:30;;;;;;;2.50;1.73;;;;;;;;;;5116596;27;24429;-58
2021/09/30 04:44:56;;;;;;;1.60;1.50;;;;;;;;;;5123748;27;25282;-58
2021/09/30 04:47:21;;;;;;;1.90;1.80;;;;;;;;;;5109210;27;24421;-58
2021/09/30 04:49:47;;;;;;;1.80;1.70;;;;;;;;;;5126763;27;24448;-58
2021/09/30 04:52:12;;;;;;;2.00;1.75;;;;;;;;;;5127259;27;25042;-58
2021/09/30 04:54:37;;;;;;;1.70;1.60;;;;;;;;;;5126946;27;24433;-59
2021/09/30 04:57:02;;;;;;;2.60;2.00;;;;;;;;;;5127323;27;24394;-59
2021/09/30 04:59:28;;;;;;;1.80;1.70;;;;;;;;;;5125895;27;25026;-59
2021/09/30 05:01:53;;;;;;;2.00;1.90;;;;;;;;;;5126128;27;24432;-58
2021/09/30 05:04:18;;;;;;;2.00;1.80;;;;;;;;;;5122089;27;24472;-59
2021/09/30 05:06:43;;;;;;;1.60;1.50;;;;;;;;;;5107196;27;24834;-58
2021/09/30 05:09:08;;;;;;;1.98;1.40;;;;;;;;;;5115812;27;24406;-59
2021/09/30 05:11:36;;;;;;;1.37;1.27;;;;;;;;;;5120531;27;24456;-59
2021/09/30 05:14:02;;;;;;;1.88;1.20;;;;;;;;;;5126504;27;24462;-59
2021/09/30 05:16:28;;;;;;;1.30;1.20;;;;;;;;;;5125795;27;24968;-59
2021/09/30 05:18:55;;;;;;;1.80;1.60;;;;;;;;;;5127378;27;24545;-59
2021/09/30 05:21:21;;;;;;;2.53;1.80;;;;;;;;;;5125170;27;24440;-59
2021/09/30 05:23:48;;;;;;;2.92;1.50;;;;;;;;;;5121877;27;25086;-59
2021/09/30 05:26:13;;;;;;;2.40;1.50;;;;;;;;;;5113041;27;24982;-59
2021/09/30 05:28:38;;;;;;;1.70;1.60;;;;;;;;;;5119574;27;24438;-58
2021/09/30 05:31:03;;;;;;;2.22;1.80;;;;;;;;;;5123736;27;24409;-59
2021/09/30 05:33:28;;;;;;;3.50;1.90;;;;;;;;;;5121400;27;24788;-59
2021/09/30 05:35:55;;;;;;;1.90;1.70;;;;;;;;;;5125409;27;24921;-58
2021/09/30 05:38:20;;;;;;;1.60;1.50;;;;;;;;;;5124985;27;24397;-59
2021/09/30 05:40:48;;;;;;;1.83;1.60;;;;;;;;;;5123275;27;24465;-59
2021/09/30 05:43:19;;;;;;;2.67;1.70;;;;;;;;;;5119897;27;24421;-59
2021/09/30 05:45:45;;;;;;;2.00;1.40;;;;;;;;;;5119475;27;24446;-60
2021/09/30 05:48:10;;;;;;;1.53;1.37;;;;;;;;;;5121391;27;25150;-59
2021/09/30 05:50:35;;;;;;;1.60;1.50;;;;;;;;;;5123086;27;24510;-60
2021/09/30 05:53:01;;;;;;;1.50;1.40;;;;;;;;;;5124681;27;24993;-59
2021/09/30 05:55:26;;;;;;;1.60;1.50;;;;;;;;;;5125071;27;24421;-59
2021/09/30 05:57:51;;;;;;;1.60;1.48;;;;;;;;;;5118308;27;24393;-59
2021/09/30 06:07:27;;;;;;;2.40;1.30;;;;;;;;;;5124597;27;24419;-59
2021/09/30 06:14:07;;;;;;;1.40;1.25;;;;;;;;;;5125289;27;25242;-59
2021/09/30 06:16:36;;;;;;;2.70;1.25;;;;;;;;;;5121746;27;25224;-59
2021/09/30 06:19:03;;;;;;;1.50;1.30;;;;;;;;;;5111580;27;24497;-59
2021/09/30 06:21:28;;;;;;;1.50;1.20;;;;;;;;;;5122896;27;25091;-58
2021/09/30 06:23:53;;;;;;;1.40;1.30;;;;;;;;;;5104544;28;24535;-59
2021/09/30 06:26:18;;;;;;;2.27;1.40;;;;;;;;;;5107928;27;24475;-59
2021/09/30 06:28:43;;;;;;;2.47;1.30;;;;;;;;;;5124647;27;24459;-59
2021/09/30 06:31:08;;;;;;;2.60;1.20;;;;;;;;;;5124962;27;24513;-58
2021/09/30 06:33:34;;;;;;;2.40;1.43;;;;;;;;;;5124340;27;24437;-59
2021/09/30 06:35:59;;;;;;;1.70;1.40;;;;;;;;;;5125358;27;25208;-58
2021/09/30 06:38:24;;;;;;;1.42;1.27;;;;;;;;;;5119143;27;26742;-59
2021/09/30 06:40:49;;;;;;;2.73;1.20;;;;;;;;;;5117689;27;24936;-59
2021/09/30 06:43:14;;;;;;;3.50;1.33;;;;;;;;;;5121837;27;24416;-59
2021/09/30 06:45:40;;;;;;;2.20;1.57;;;;;;;;;;5122143;27;24442;-58
2021/09/30 06:48:05;;;;;;;2.60;2.30;;;;;;;;;;5124044;27;24454;-59
2021/09/30 06:50:30;;;;;;;2.73;1.27;;;;;;;;;;5123232;27;24405;-58
2021/09/30 06:52:55;;;;;;;1.67;1.40;;;;;;;;;;5119697;27;25080;-61
2021/09/30 06:55:20;;;;;;;1.40;1.20;;;;;;;;;;5118540;27;24428;-59
2021/09/30 06:57:47;;;;;;;1.90;1.13;;;;;;;;;;5122181;27;24507;-59
2021/09/30 07:00:13;;;;;;;2.35;1.20;;;;;;;;;;5123984;27;24930;-59
2021/09/30 07:02:39;;;;;;;2.70;1.30;;;;;;;;;;5121630;27;24425;-59
2021/09/30 07:05:04;;;;;;;1.75;1.20;;;;;;;;;;5118193;27;24765;-59
2021/09/30 07:07:31;;;;;;;1.20;1.00;;;;;;;;;;5119001;27;24397;-60
2021/09/30 07:09:56;;;;;;;1.90;1.00;;;;;;;;;;5124098;27;24468;-59
2021/09/30 07:12:21;;;;;;;1.30;1.15;;;;;;;;;;5124011;27;24496;-59
2021/09/30 07:14:46;;;;;;;3.40;1.30;;;;;;;;;;5120679;27;24916;-59
2021/09/30 07:17:11;;;;;;;1.80;1.30;;;;;;;;;;5121113;28;24397;-59
2021/09/30 07:19:37;;;;;;;1.27;1.10;;;;;;;;;;5119669;28;24464;-59
2021/09/30 07:22:03;;;;;;;1.30;0.90;;;;;;;;;;5120331;28;24992;-60
2021/09/30 07:24:29;;;;;;;1.20;1.00;;;;;;;;;;5101087;28;24490;-60
2021/09/30 07:26:54;;;;;;;2.30;1.30;;;;;;;;;;5123413;28;24389;-59
2021/09/30 07:29:19;;;;;;;1.80;1.10;;;;;;;;;;5123810;28;24405;-59
2021/09/30 07:31:44;;;;;;;1.00;1.00;;;;;;;;;;5121797;28;24753;-59
2021/09/30 07:34:12;;;;;;;1.42;1.33;;;;;;;;;;5122122;27;24433;-59
2021/09/30 07:36:38;;;;;;;2.77;1.40;;;;;;;;;;5121801;27;24504;-59
2021/09/30 07:39:03;;;;;;;1.67;1.40;;;;;;;;;;5127688;27;24396;-59
2021/09/30 07:41:29;;;;;;;1.47;1.27;;;;;;;;;;5125930;27;24385;-59
2021/09/30 07:43:54;;;;;;;1.45;1.30;;;;;;;;;;5128024;27;24408;-60
2021/09/30 07:46:19;;;;;;;1.17;1.08;;;;;;;;;;5126072;27;24405;-60
2021/09/30 07:48:44;;;;;;;1.50;1.00;;;;;;;;;;5121797;27;24492;-60
2021/09/30 07:51:09;;;;;;;1.30;1.10;;;;;;;;;;5123807;27;24421;-58
2021/09/30 07:53:35;;;;;;;1.20;1.10;;;;;;;;;;5124484;27;24397;-59
2021/09/30 07:56:00;;;;;;;1.90;1.37;;;;;;;;;;5127808;27;24809;-60
2021/09/30 07:58:25;;;;;;;2.10;1.43;;;;;;;;;;5127385;27;24913;-59
2021/09/30 08:00:50;;;;;;;1.40;1.20;;;;;;;;;;5122397;27;24389;-60
2021/09/30 08:03:15;;;;;;;2.10;1.20;;;;;;;;;;5121703;27;24496;-60
2021/09/30 08:05:41;;;;;;;1.65;1.20;;;;;;;;;;5125476;27;24413;-59
2021/09/30 08:08:06;;;;;;;1.30;1.20;;;;;;;;;;5127124;27;24396;-59
2021/09/30 08:10:32;;;;;;;2.05;1.40;;;;;;;;;;5125035;27;24397;-58
2021/09/30 08:12:57;;;;;;;2.40;1.42;;;;;;;;;;5122230;27;24482;-58
2021/09/30 08:15:23;;;;;;;1.40;1.30;;;;;;;;;;5122760;27;24608;-59
2021/09/30 08:17:48;;;;;;;2.37;1.40;;;;;;;;;;5123096;27;24924;-59
2021/09/30 08:20:13;;;;;;;2.10;1.30;;;;;;;;;;5126832;27;24403;-60
2021/09/30 08:22:39;;;;;;;1.50;1.00;;;;;;;;;;5125051;27;24475;-59
2021/09/30 08:25:04;;;;;;;1.42;1.23;;;;;;;;;;5126289;27;24478;-60
2021/09/30 08:27:29;;;;;;;1.30;1.20;;;;;;;;;;5123169;27;24412;-60
2021/09/30 08:29:55;;;;;;;2.00;1.70;;;;;;;;;;5121090;27;24398;-61
2021/09/30 08:32:21;;;;;;;3.60;1.60;;;;;;;;;;5123419;27;24955;-58
2021/09/30 08:34:46;;;;;;;2.10;1.30;;;;;;;;;;5126538;27;24483;-59
2021/09/30 08:37:11;;;;;;;2.30;1.20;;;;;;;;;;5126228;27;24413;-59
2021/09/30 08:39:36;;;;;;;1.90;1.20;;;;;;;;;;5124827;27;24494;-61
2021/09/30 08:42:04;;;;;;;1.50;1.40;;;;;;;;;;5123132;27;24810;-58
2021/09/30 08:44:30;;;;;;;1.35;1.00;;;;;;;;;;5122316;27;24393;-59
2021/09/30 08:46:55;;;;;;;1.30;1.20;;;;;;;;;;5122401;27;24777;-58
2021/09/30 08:49:21;;;;;;;1.50;1.40;;;;;;;;;;5124500;27;24427;-60
2021/09/30 08:51:46;;;;;;;1.80;1.33;;;;;;;;;;5124797;27;24505;-61
2021/09/30 08:54:11;;;;;;;1.70;1.50;;;;;;;;;;5126328;27;24413;-59
2021/09/30 08:56:36;;;;;;;3.30;1.52;;;;;;;;;;5121958;27;24870;-59
2021/09/30 08:59:15;;;;;;;2.10;1.30;;;;;;;;;;5120736;27;24486;-59
2021/09/30 09:01:43;;;;;;;3.42;1.52;;;;;;;;;;5122592;27;24408;-59
2021/09/30 09:04:18;;;;;;;2.47;1.47;;;;;;;;;;5124446;27;24510;-59
2021/09/30 09:06:45;;;;;;;2.00;1.70;;;;;;;;;;5124132;27;24906;-59
2021/09/30 09:09:22;;;;;;;1.63;1.40;;;;;;;;;;5125375;27;24448;-59
2021/09/30 09:11:49;;;;;;;2.47;1.42;;;;;;;;;;5120093;27;24769;-59
2021/09/30 09:14:25;;;;;;;2.38;1.20;;;;;;;;;;5120440;27;24991;-59
2021/09/30 09:16:57;;;;;;;3.35;1.60;;;;;;;;;;5123648;27;24393;-60
2021/09/30 09:19:33;;;;;;;2.03;1.45;;;;;;;;;;5125498;27;24955;-59
2021/09/30 09:22:05;;;;;;;2.83;1.45;;;;;;;;;;5125707;27;24417;-58
2021/09/30 09:24:31;;;;;;;1.30;1.20;;;;;;;;;;5121948;27;24405;-58
2021/09/30 09:26:59;;;;;;;2.57;1.57;;;;;;;;;;5121973;27;24397;-58
2021/09/30 09:29:27;;;;;;;2.58;1.50;;;;;;;;;;5125208;27;24425;-59
2021/09/30 09:31:52;;;;;;;1.90;1.40;;;;;;;;;;5123757;27;24416;-60
2021/09/30 09:34:22;;;;;;;1.20;1.07;;;;;;;;;;5125555;27;25277;-60
2021/09/30 09:36:49;;;;;;;2.05;1.50;;;;;;;;;;5121251;27;24984;-58
2021/09/30 09:39:15;;;;;;;2.67;1.47;;;;;;;;;;5119897;27;24947;-58
2021/09/30 09:41:41;;;;;;;2.20;1.50;;;;;;;;;;5119771;27;24402;-58
2021/09/30 09:44:07;;;;;;;3.47;1.50;;;;;;;;;;5123182;27;24500;-58
2021/09/30 09:46:41;;;;;;;2.28;1.50;;;;;;;;;;5123226;27;24432;-58
2021/09/30 09:49:08;;;;;;;1.80;1.50;;;;;;;;;;5124919;27;24392;-59
2021/09/30 09:51:45;;;;;;;1.90;1.30;;;;;;;;;;5123053;27;24401;-59
2021/09/30 09:54:16;;;;;;;2.60;1.30;;;;;;;;;;5119561;27;24928;-59
2021/09/30 09:56:41;;;;;;;1.60;1.35;;;;;;;;;;5120112;27;24452;-59
2021/09/30 09:59:07;;;;;;;2.00;1.20;;;;;;;;;;5123009;27;24437;-58
2021/09/30 10:01:45;;;;;;;1.30;1.20;;;;;;;;;;5123075;27;24461;-59
2021/09/30 10:04:11;;;;;;;1.63;1.40;;;;;;;;;;5125124;27;24396;-59
2021/09/30 10:06:36;;;;;;;2.20;1.40;;;;;;;;;;5119012;27;24393;-58
2021/09/30 10:09:03;;;;;;;2.20;1.37;;;;;;;;;;5121151;27;24754;-61
2021/09/30 10:11:28;;;;;;;1.65;1.20;;;;;;;;;;5120945;27;24385;-59
2021/09/30 10:13:58;;;;;;;2.93;1.40;;;;;;;;;;5122871;27;24425;-59
2021/09/30 10:16:26;;;;;;;1.45;1.00;;;;;;;;;;5124360;27;24389;-59
2021/09/30 10:18:53;;;;;;;2.45;1.20;;;;;;;;;;5122847;27;24409;-59
2021/09/30 10:21:18;;;;;;;1.52;1.00;;;;;;;;;;5120423;27;24754;-59
2021/09/30 10:23:48;;;;;;;1.00;0.80;;;;;;;;;;5119018;27;24485;-59
2021/09/30 10:26:38;;;;;;;1.90;0.90;;;;;;;;;;5120782;27;24377;-59
2021/09/30 10:29:03;;;;;;;1.40;1.17;;;;;;;;;;5111521;27;24412;-59
2021/09/30 10:31:30;;;;;;;1.93;1.10;;;;;;;;;;5124384;27;24385;-59
2021/09/30 10:33:56;;;;;;;1.10;1.00;;;;;;;;;;5118527;27;24433;-60
2021/09/30 10:36:33;;;;;;;2.75;1.05;;;;;;;;;;5120071;27;24396;-60
2021/09/30 10:39:13;;;;;;;1.70;0.90;;;;;;;;;;5120435;27;24758;-59
2021/09/30 10:41:38;;;;;;;2.50;1.00;;;;;;;;;;5124235;27;24445;-59
2021/09/30 10:44:21;;;;;;;1.33;0.82;;;;;;;;;;5124368;27;24449;-59
2021/09/30 10:46:48;;;;;;;1.90;1.20;;;;;;;;;;5121847;27;24433;-60
2021/09/30 10:49:30;;;;;;;1.50;1.30;;;;;;;;;;5120676;27;24626;-59
2021/09/30 10:52:14;;;;;;;1.40;1.00;;;;;;;;;;5118305;27;24920;-59
2021/09/30 10:54:39;;;;;;;1.95;1.10;;;;;;;;;;5122085;27;24972;-60
2021/09/30 10:57:23;;;;;;;0.80;0.80;;;;;;;;;;5123946;27;24404;-59
2021/09/30 10:59:49;;;;;;;1.77;0.80;;;;;;;;;;5121971;27;24389;-60
2021/09/30 11:02:14;;;;;;;1.17;1.00;;;;;;;;;;5110736;27;25013;-59
2021/09/30 11:05:00;;;;;;;1.50;1.00;;;;;;;;;;5097638;28;24393;-59
2021/09/30 11:07:25;;;;;;;1.77;1.10;;;;;;;;;;5098953;28;24509;-60
2021/09/30 11:10:09;;;;;;;1.10;0.90;;;;;;;;;;5101561;28;24488;-59
2021/09/30 11:12:34;;;;;;;1.55;1.00;;;;;;;;;;5101298;28;24394;-59
2021/09/30 11:14:59;;;;;;;1.30;0.90;;;;;;;;;;5103167;28;24474;-59
2021/09/30 11:17:34;;;;;;;1.60;1.00;;;;;;;;;;5103078;28;24484;-59
2021/09/30 11:20:18;;;;;;;1.70;1.00;;;;;;;;;;5097554;28;24821;-60
2021/09/30 11:22:44;;;;;;;2.42;0.90;;;;;;;;;;5097663;28;24390;-59
2021/09/30 11:25:09;;;;;;;0.80;0.80;;;;;;;;;;5103220;28;24401;-59
2021/09/30 11:27:35;;;;;;;1.33;0.90;;;;;;;;;;5100826;28;24409;-60
2021/09/30 11:30:14;;;;;;;2.10;1.00;;;;;;;;;;5103311;28;24401;-59
2021/09/30 11:32:39;;;;;;;1.63;0.80;;;;;;;;;;5099228;28;24414;-60
2021/09/30 11:35:08;;;;;;;1.60;1.00;;;;;;;;;;5097214;28;25292;-60
2021/09/30 11:37:37;;;;;;;1.00;0.80;;;;;;;;;;5097383;28;24416;-60
2021/09/30 11:40:07;;;;;;;1.13;0.90;;;;;;;;;;5103134;28;24393;-59
2021/09/30 11:42:34;;;;;;;2.00;1.00;;;;;;;;;;5100762;28;24986;-58
2021/09/30 11:45:06;;;;;;;1.42;0.90;;;;;;;;;;5102800;28;24685;-58
2021/09/30 11:47:31;;;;;;;1.80;0.90;;;;;;;;;;5100856;28;24393;-59
2021/09/30 11:49:57;;;;;;;1.53;0.90;;;;;;;;;;5097147;28;24471;-58
2021/09/30 11:52:22;;;;;;;1.30;0.80;;;;;;;;;;5096924;28;24382;-59
2021/09/30 11:54:47;;;;;;;1.00;0.80;;;;;;;;;;5102625;28;24454;-59
2021/09/30 11:57:26;;;;;;;1.30;1.00;;;;;;;;;;5102564;28;24394;-59
2021/09/30 11:59:51;;;;;;;1.25;0.90;;;;;;;;;;5100688;28;24824;-59
2021/09/30 12:02:17;;;;;;;1.80;1.00;;;;;;;;;;5110156;28;24424;-59
2021/09/30 12:04:48;;;;;;;1.30;0.82;;;;;;;;;;5117940;28;24484;-60
2021/09/30 12:07:15;;;;;;;2.10;0.80;;;;;;;;;;5117863;28;24400;-60
2021/09/30 12:09:40;;;;;;;1.30;0.65;;;;;;;;;;5123307;28;25008;-60
2021/09/30 12:12:05;;;;;;;1.70;1.20;;;;;;;;;;5123393;28;24413;-60
2021/09/30 12:14:38;;;;;;;2.00;1.07;;;;;;;;;;5123230;28;24420;-58
2021/09/30 12:17:05;;;;;;;2.45;1.10;;;;;;;;;;5121324;28;24404;-60
2021/09/30 12:19:31;;;;;;;2.60;1.15;;;;;;;;;;5120136;27;24434;-60
2021/09/30 12:21:57;;;;;;;1.00;0.85;;;;;;;;;;5121797;27;24392;-60
2021/09/30 12:24:26;;;;;;;1.20;1.10;;;;;;;;;;5125240;27;24397;-61
2021/09/30 12:26:51;;;;;;;0.90;0.90;;;;;;;;;;5126626;27;24424;-60
2021/09/30 12:29:17;;;;;;;1.30;1.10;;;;;;;;;;5127116;27;24815;-59
2021/09/30 12:31:42;;;;;;;1.52;1.10;;;;;;;;;;5125080;27;24393;-60
2021/09/30 12:34:20;;;;;;;1.70;1.07;;;;;;;;;;5121228;27;24474;-60
2021/09/30 12:36:46;;;;;;;1.92;0.90;;;;;;;;;;5120827;27;24517;-59
2021/09/30 12:39:11;;;;;;;2.03;1.30;;;;;;;;;;5124603;27;25008;-61
2021/09/30 12:41:36;;;;;;;1.10;1.00;;;;;;;;;;5124967;27;24397;-59
2021/09/30 12:44:12;;;;;;;1.73;0.90;;;;;;;;;;5127182;27;24472;-59
2021/09/30 12:46:44;;;;;;;4.20;1.30;;;;;;;;;;5124322;27;24950;-59
2021/09/30 12:49:09;;;;;;;1.10;0.90;;;;;;;;;;5120581;27;24940;-59
2021/09/30 12:51:34;;;;;;;2.03;1.00;;;;;;;;;;5120569;27;24508;-59
2021/09/30 12:53:59;;;;;;;1.40;0.90;;;;;;;;;;5124538;27;24553;-60
2021/09/30 12:56:36;;;;;;;1.40;0.70;;;;;;;;;;5126065;27;24809;-61
2021/09/30 12:59:12;;;;;;;0.60;0.60;;;;;;;;;;5126024;27;25149;-60
2021/09/30 13:01:37;;;;;;;1.25;0.80;;;;;;;;;;5113639;27;24406;-60
2021/09/30 13:04:12;;;;;;;1.45;1.00;;;;;;;;;;5102962;27;24929;-60
2021/09/30 13:06:39;;;;;;;1.60;0.80;;;;;;;;;;5116041;27;24417;-60
2021/09/30 13:09:05;;;;;;;0.80;0.77;;;;;;;;;;5124330;27;24409;-60
2021/09/30 13:11:30;;;;;;;2.27;0.80;;;;;;;;;;5125940;27;24392;-59
2021/09/30 13:14:16;;;;;;;1.30;0.85;;;;;;;;;;5123606;27;24498;-60
2021/09/30 13:16:42;;;;;;;1.42;1.15;;;;;;;;;;5123653;27;24516;-59
2021/09/30 13:19:07;;;;;;;2.00;1.00;;;;;;;;;;5113256;27;24490;-58
2021/09/30 13:21:51;;;;;;;1.50;0.80;;;;;;;;;;5104017;27;24493;-61
2021/09/30 13:24:16;;;;;;;0.90;0.80;;;;;;;;;;5121278;27;24429;-60
2021/09/30 13:26:41;;;;;;;0.70;0.70;;;;;;;;;;5110669;27;25046;-60
2021/09/30 13:29:07;;;;;;;1.67;1.00;;;;;;;;;;5118160;27;24515;-60
2021/09/30 13:31:32;;;;;;;1.60;0.97;;;;;;;;;;5114449;27;24413;-60
2021/09/30 13:33:58;;;;;;;1.10;0.90;;;;;;;;;;5116635;27;24444;-59
2021/09/30 13:36:23;;;;;;;1.08;0.85;;;;;;;;;;5113867;27;24402;-60
2021/09/30 13:38:48;;;;;;;1.90;0.90;;;;;;;;;;5123187;27;24455;-59
2021/09/30 13:41:13;;;;;;;1.10;0.90;;;;;;;;;;5122262;27;24516;-60
2021/09/30 13:43:39;;;;;;;0.90;0.80;;;;;;;;;;5121188;27;24397;-58
2021/09/30 13:46:04;;;;;;;1.67;1.10;;;;;;;;;;5122467;27;24417;-58
2021/09/30 13:48:29;;;;;;;1.10;0.80;;;;;;;;;;5124502;27;24966;-60
2021/09/30 13:50:54;;;;;;;1.00;0.90;;;;;;;;;;5122718;27;24412;-59
2021/09/30 13:53:21;;;;;;;1.90;0.97;;;;;;;;;;5120828;27;24458;-57
2021/09/30 13:55:46;;;;;;;1.20;0.93;;;;;;;;;;5124027;27;24486;-58
2021/09/30 13:58:11;;;;;;;0.70;0.60;;;;;;;;;;5123930;27;24405;-59
2021/09/30 14:00:38;;;;;;;1.27;0.90;;;;;;;;;;5109171;27;24402;-59
2021/09/30 14:03:03;;;;;;;1.80;0.80;;;;;;;;;;5106484;27;24405;-58
2021/09/30 14:05:28;;;;;;;1.25;0.80;;;;;;;;;;5117868;27;24419;-57
2021/09/30 14:07:53;;;;;;;1.93;1.03;;;;;;;;;;5119210;27;24405;-61
2021/09/30 14:10:22;;;;;;;1.90;1.00;;;;;;;;;;5109478;27;24440;-60
2021/09/30 14:12:49;;;;;;;1.77;1.20;;;;;;;;;;5113017;27;24827;-58
2021/09/30 14:15:14;;;;;;;2.10;1.17;;;;;;;;;;5120295;27;24462;-59
2021/09/30 14:17:40;;;;;;;1.80;1.00;;;;;;;;;;5097355;28;24451;-58
2021/09/30 14:20:06;;;;;;;0.80;0.80;;;;;;;;;;5095489;28;24802;-58
2021/09/30 14:22:31;;;;;;;1.30;1.00;;;;;;;;;;5108202;27;24394;-58
2021/09/30 14:24:56;;;;;;;2.50;0.90;;;;;;;;;;5122319;27;24476;-58
2021/09/30 14:27:23;;;;;;;1.20;1.10;;;;;;;;;;5121374;27;24392;-58
2021/09/30 14:29:48;;;;;;;1.63;1.20;;;;;;;;;;5119162;27;25012;-58
2021/09/30 14:32:14;;;;;;;1.67;0.90;;;;;;;;;;5118026;27;24425;-59
2021/09/30 14:34:40;;;;;;;0.80;0.80;;;;;;;;;;5117942;27;25305;-58
2021/09/30 14:37:06;;;;;;;2.47;1.02;;;;;;;;;;5118069;27;24405;-58
2021/09/30 14:39:31;;;;;;;1.00;0.80;;;;;;;;;;5120051;27;24497;-58
2021/09/30 14:41:56;;;;;;;2.40;0.90;;;;;;;;;;5119425;27;24488;-58
2021/09/30 14:44:23;;;;;;;0.70;0.70;;;;;;;;;;5119604;27;24413;-58
2021/09/30 14:46:48;;;;;;;1.30;1.20;;;;;;;;;;5111875;27;24461;-58
2021/09/30 14:49:13;;;;;;;1.00;0.90;;;;;;;;;;5106085;27;24463;-58
2021/09/30 14:51:38;;;;;;;1.38;1.20;;;;;;;;;;5117237;27;24445;-58
2021/09/30 14:54:04;;;;;;;1.83;1.00;;;;;;;;;;5120805;27;25002;-58
2021/09/30 14:56:29;;;;;;;0.80;0.80;;;;;;;;;;5120922;27;24469;-57
2021/09/30 14:58:54;;;;;;;0.90;0.70;;;;;;;;;;5114601;27;24446;-57
2021/09/30 15:01:21;;;;;;;0.90;0.65;;;;;;;;;;5115144;27;24428;-58
2021/09/30 15:03:46;;;;;;;1.10;1.00;;;;;;;;;;5120772;27;24410;-58
2021/09/30 15:06:12;;;;;;;0.73;0.60;;;;;;;;;;5120753;27;24814;-58
2021/09/30 15:08:37;;;;;;;1.40;0.90;;;;;;;;;;5117324;27;24855;-57
2021/09/30 15:11:03;;;;;;;2.10;1.20;;;;;;;;;;5122244;27;25297;-58
2021/09/30 15:13:28;;;;;;;1.20;1.10;;;;;;;;;;5118920;27;24928;-58
2021/09/30 15:15:54;;;;;;;1.70;1.00;;;;;;;;;;5117531;27;24424;-59
2021/09/30 15:18:27;;;;;;;1.10;1.00;;;;;;;;;;5119843;27;24854;-58
2021/09/30 15:23:36;;;;;;;1.25;1.08;;;;;;;;;;5122192;28;24388;-58
2021/09/30 15:26:01;;;;;;;1.40;1.10;;;;;;;;;;5122075;28;24401;-58
2021/09/30 15:28:27;;;;;;;1.30;1.17;;;;;;;;;;5119686;28;24428;-58
2021/09/30 15:30:54;;;;;;;1.00;0.90;;;;;;;;;;5099729;28;24870;-58
2021/09/30 15:33:19;;;;;;;3.17;1.30;;;;;;;;;;5120030;28;24505;-61
2021/09/30 15:35:44;;;;;;;1.45;1.10;;;;;;;;;;5123682;28;24409;-58
2021/09/30 15:38:09;;;;;;;1.90;1.00;;;;;;;;;;5122926;28;24440;-58
2021/09/30 15:40:35;;;;;;;2.30;1.13;;;;;;;;;;5121901;28;24397;-58
2021/09/30 15:43:00;;;;;;;3.10;1.10;;;;;;;;;;5118011;28;24385;-59
2021/09/30 15:45:25;;;;;;;1.10;1.00;;;;;;;;;;5120352;28;24421;-58
2021/09/30 15:47:50;;;;;;;1.10;1.00;;;;;;;;;;5119823;28;25009;-59
2021/09/30 15:50:15;;;;;;;1.48;1.30;;;;;;;;;;5123005;28;24461;-58
2021/09/30 15:52:41;;;;;;;2.22;1.38;;;;;;;;;;5120891;28;24672;-58
2021/09/30 15:55:06;;;;;;;1.50;1.00;;;;;;;;;;5125157;27;24440;-58
2021/09/30 15:57:34;;;;;;;1.40;1.30;;;;;;;;;;5123152;27;24511;-59
2021/09/30 16:00:00;;;;;;;1.48;1.00;;;;;;;;;;5122033;27;24442;-58
2021/09/30 16:02:25;;;;;;;1.70;1.00;;;;;;;;;;5124013;27;24393;-58
2021/09/30 16:04:50;;;;;;;1.60;1.17;;;;;;;;;;5124947;27;24413;-58
2021/09/30 16:07:15;;;;;;;1.50;1.30;;;;;;;;;;5127553;27;24393;-60
2021/09/30 16:09:40;;;;;;;1.30;1.20;;;;;;;;;;5125003;27;24497;-58
2021/09/30 16:12:06;;;;;;;2.40;1.35;;;;;;;;;;5123858;27;24401;-58
2021/09/30 16:14:35;;;;;;;1.20;1.10;;;;;;;;;;5121420;27;24406;-59
2021/09/30 16:17:00;;;;;;;2.08;1.00;;;;;;;;;;5125040;27;24413;-59
2021/09/30 16:19:25;;;;;;;1.10;1.00;;;;;;;;;;5125157;27;24404;-58
2021/09/30 16:21:50;;;;;;;1.20;1.10;;;;;;;;;;5125032;27;24834;-59
2021/09/30 16:24:16;;;;;;;0.90;0.80;;;;;;;;;;5127388;27;24401;-58
2021/09/30 16:26:41;;;;;;;0.80;0.80;;;;;;;;;;5122868;27;25356;-60
2021/09/30 16:29:06;;;;;;;0.90;0.90;;;;;;;;;;5121684;27;24877;-58
2021/09/30 16:31:35;;;;;;;1.37;0.90;;;;;;;;;;5123248;27;24389;-58
2021/09/30 16:34:00;;;;;;;1.60;1.40;;;;;;;;;;5124536;27;24596;-59
2021/09/30 16:36:25;;;;;;;1.23;1.07;;;;;;;;;;5123433;27;24924;-58
2021/09/30 16:38:51;;;;;;;1.30;1.20;;;;;;;;;;5124558;27;24550;-59
2021/09/30 16:41:16;;;;;;;1.57;1.40;;;;;;;;;;5123282;27;24816;-58
2021/09/30 16:43:42;;;;;;;2.10;1.80;;;;;;;;;;5121619;27;24803;-59
2021/09/30 16:46:07;;;;;;;2.10;1.90;;;;;;;;;;5123106;27;24394;-59
2021/09/30 16:48:32;;;;;;;2.10;2.00;;;;;;;;;;5122410;27;24420;-58
2021/09/30 16:50:57;;;;;;;2.60;2.00;;;;;;;;;;5125868;27;24931;-57
2021/09/30 16:53:24;;;;;;;2.50;1.80;;;;;;;;;;5124516;27;24421;-59
2021/09/30 16:55:50;;;;;;;2.00;1.90;;;;;;;;;;5120897;27;24835;-58
2021/09/30 16:58:15;;;;;;;2.72;1.60;;;;;;;;;;5122663;27;24399;-58
2021/09/30 17:00:40;;;;;;;1.63;1.40;;;;;;;;;;5124519;27;24418;-58
2021/09/30 17:03:06;;;;;;;1.70;1.50;;;;;;;;;;5126208;27;24412;-58
2021/09/30 17:05:31;;;;;;;1.60;1.50;;;;;;;;;;5124733;27;24404;-59
2021/09/30 17:07:56;;;;;;;2.40;1.60;;;;;;;;;;5121989;27;24496;-58
2021/09/30 17:10:21;;;;;;;1.50;1.40;;;;;;;;;;5124375;27;24424;-58
2021/09/30 17:12:50;;;;;;;1.65;1.55;;;;;;;;;;5120851;27;24719;-59
2021/09/30 17:15:15;;;;;;;2.00;1.40;;;;;;;;;;5111734;27;24524;-58
2021/09/30 17:17:42;;;;;;;1.57;1.47;;;;;;;;;;5109827;27;24493;-59
2021/09/30 17:20:08;;;;;;;1.63;1.52;;;;;;;;;;5115729;27;24955;-60
2021/09/30 17:22:33;;;;;;;1.70;1.60;;;;;;;;;;5116415;27;24423;-61
2021/09/30 17:24:59;;;;;;;2.63;2.10;;;;;;;;;;5119120;27;24505;-60
2021/09/30 17:27:24;;;;;;;2.40;1.80;;;;;;;;;;5112982;27;24990;-60